Wetterdaten: aktuell Montag, 17.12.2018 10:52
Datum Zeit Temp. 2m Temp. 5cm Temp. -10cm Feuchte 2m Luftdruck Regen Wind Richtung Richtung Taupunkt Windchill Windben
17.12.2018 10:52 -0,5 C 1,0 C 2,5 C 93 % 1019,9 hPa 0,0 l/m 0,0 km/h (0 Bft) W-NW 292 -1,5 C -0,5 C 0,0 km/h (0 Bft)
17.12.2018 10:50 -0,5 C 0,8 C 2,5 C 93 % 1019,9 hPa 0,0 l/m 0,0 km/h (0 Bft) N-NW 337 -1,5 C -0,5 C 0,0 km/h (0 Bft)
17.12.2018 10:48 -0,6 C 0,8 C 2,5 C 93 % 1020,1 hPa 0,0 l/m 0,0 km/h (0 Bft) NW 315 -1,6 C -0,6 C 0,0 km/h (0 Bft)
17.12.2018 10:46 -0,6 C 0,8 C 2,5 C 93 % 1020,1 hPa 0,0 l/m 0,0 km/h (0 Bft) W-NW 292 -1,6 C -0,6 C 0,0 km/h (0 Bft)
17.12.2018 10:44 -0,5 C 1,0 C 2,5 C 93 % 1020,1 hPa 0,0 l/m 0,0 km/h (0 Bft) W-SW 247 -1,5 C -0,5 C 0,0 km/h (0 Bft)
17.12.2018 10:42 -0,5 C 1,0 C 2,5 C 93 % 1020,1 hPa 0,0 l/m 0,2 km/h (0 Bft) W-SW 247 -1,5 C -0,5 C 0,0 km/h (0 Bft)
17.12.2018 10:40 -0,6 C 1,0 C 2,5 C 93 % 1020,1 hPa 0,0 l/m 0,2 km/h (0 Bft) NO 45 -1,6 C -0,6 C 0,0 km/h (0 Bft)
17.12.2018 10:38 -0,6 C 1,0 C 2,5 C 93 % 1020,1 hPa 0,0 l/m 0,3 km/h (0 Bft) O-NO 67 -1,6 C -0,6 C 0,0 km/h (0 Bft)
17.12.2018 10:36 -0,6 C 1,0 C 2,5 C 93 % 1020,1 hPa 0,0 l/m 0,3 km/h (0 Bft) O 90 -1,6 C -0,6 C 0,0 km/h (0 Bft)
17.12.2018 10:34 -0,6 C 1,0 C 2,5 C 93 % 1020,1 hPa 0,0 l/m 0,3 km/h (0 Bft) W-NW 292 -1,6 C -0,6 C 0,0 km/h (0 Bft)
17.12.2018 10:32 -0,6 C 1,0 C 2,5 C 93 % 1020,1 hPa 0,0 l/m 0,5 km/h (0 Bft) W 270 -1,6 C -0,6 C 2,3 km/h (1 Bft)
17.12.2018 10:30 -0,5 C 1,0 C 2,5 C 93 % 1020,1 hPa 0,0 l/m 0,2 km/h (0 Bft) W 270 -1,5 C -0,5 C 0,0 km/h (0 Bft)
17.12.2018 10:28 -0,5 C 1,0 C 2,5 C 93 % 1019,8 hPa 0,0 l/m 0,2 km/h (0 Bft) S-SW 202 -1,5 C -0,5 C 2,1 km/h (1 Bft)
17.12.2018 10:26 -0,3 C 1,0 C 2,5 C 93 % 1019,8 hPa 0,0 l/m 0,2 km/h (0 Bft) N 360 -1,3 C -0,3 C 0,0 km/h (0 Bft)
17.12.2018 10:24 -0,7 C 0,8 C 2,5 C 93 % 1019,8 hPa 0,0 l/m 0,2 km/h (0 Bft) N-NO 22 -1,7 C -0,7 C 0,0 km/h (0 Bft)
17.12.2018 10:22 -0,7 C 1,0 C 2,5 C 93 % 1019,8 hPa 0,0 l/m 0,2 km/h (0 Bft) NW 315 -1,7 C -0,7 C 2,1 km/h (1 Bft)
17.12.2018 10:20 -0,7 C 1,0 C 2,5 C 93 % 1019,8 hPa 0,0 l/m 0,0 km/h (0 Bft) SW 225 -1,7 C -0,7 C 0,0 km/h (0 Bft)
17.12.2018 10:18 -0,7 C 1,0 C 2,5 C 93 % 1019,8 hPa 0,0 l/m 0,0 km/h (0 Bft) SO 135 -1,7 C -0,7 C 0,0 km/h (0 Bft)
17.12.2018 10:16 -0,7 C 0,8 C 2,5 C 93 % 1019,8 hPa 0,0 l/m 0,3 km/h (0 Bft) S-SO 157 -1,7 C -0,7 C 0,0 km/h (0 Bft)
17.12.2018 10:14 -0,9 C 0,7 C 2,5 C 93 % 1019,8 hPa 0,0 l/m 0,3 km/h (0 Bft) O-NO 67 -1,9 C -0,9 C 0,0 km/h (0 Bft)
17.12.2018 10:12 -0,9 C 0,6 C 2,5 C 93 % 1019,8 hPa 0,0 l/m 0,3 km/h (0 Bft) O-SO 112 -1,9 C -0,9 C 0,0 km/h (0 Bft)
17.12.2018 10:10 -1,0 C 0,7 C 2,5 C 93 % 1019,8 hPa 0,0 l/m 0,3 km/h (0 Bft) N-NO 22 -2,0 C -1,0 C 2,3 km/h (1 Bft)
17.12.2018 10:08 -1,1 C 0,8 C 2,5 C 93 % 1019,6 hPa 0,0 l/m 0,3 km/h (0 Bft) O-NO 67 -2,1 C -1,1 C 0,0 km/h (0 Bft)
17.12.2018 10:06 -1,0 C 0,7 C 2,5 C 93 % 1019,6 hPa 0,0 l/m 0,2 km/h (0 Bft) S-SO 157 -2,0 C -1,0 C 3,1 km/h (1 Bft)
17.12.2018 10:04 -1,1 C 0,7 C 2,5 C 93 % 1019,6 hPa 0,0 l/m 0,0 km/h (0 Bft) O 90 -2,1 C -1,1 C 0,0 km/h (0 Bft)
17.12.2018 10:02 -1,3 C 0,6 C 2,5 C 93 % 1019,6 hPa 0,0 l/m 0,0 km/h (0 Bft) O 90 -2,3 C -1,3 C 0,0 km/h (0 Bft)
17.12.2018 10:00 -1,3 C 0,6 C 2,5 C 93 % 1019,6 hPa 0,0 l/m 0,0 km/h (0 Bft) O 90 -2,3 C -1,3 C 0,0 km/h (0 Bft)
17.12.2018 09:58 -1,4 C 0,6 C 2,5 C 93 % 1019,6 hPa 0,0 l/m 0,0 km/h (0 Bft) O 90 -2,4 C -1,4 C 0,0 km/h (0 Bft)
17.12.2018 09:56 -1,5 C 0,3 C 2,5 C 92 % 1019,6 hPa 0,0 l/m 0,0 km/h (0 Bft) O 90 -2,6 C -1,5 C 0,0 km/h (0 Bft)
17.12.2018 09:54 -1,5 C 0,3 C 2,5 C 92 % 1019,6 hPa 0,0 l/m 0,0 km/h (0 Bft) O 90 -2,6 C -1,5 C 0,0 km/h (0 Bft)
17.12.2018 09:52 -1,4 C 0,3 C 2,5 C 92 % 1019,6 hPa 0,0 l/m 0,0 km/h (0 Bft) O 90 -2,5 C -1,4 C 0,0 km/h (0 Bft)
17.12.2018 09:50 -1,4 C 0,2 C 2,5 C 92 % 1019,6 hPa 0,0 l/m 0,0 km/h (0 Bft) O 90 -2,5 C -1,4 C 0,0 km/h (0 Bft)
17.12.2018 09:48 -1,5 C 0,1 C 2,5 C 92 % 1019,0 hPa 0,0 l/m 0,0 km/h (0 Bft) O 90 -2,6 C -1,5 C 0,0 km/h (0 Bft)
17.12.2018 09:46 -1,5 C 0,1 C 2,5 C 92 % 1019,0 hPa 0,0 l/m 0,0 km/h (0 Bft) O 90 -2,6 C -1,5 C 0,0 km/h (0 Bft)
17.12.2018 09:44 -1,7 C 0,2 C 2,5 C 92 % 1019,0 hPa 0,0 l/m 0,0 km/h (0 Bft) O 90 -2,8 C -1,7 C 0,0 km/h (0 Bft)
17.12.2018 09:42 -1,7 C 0,2 C 2,5 C 92 % 1019,0 hPa 0,0 l/m 0,0 km/h (0 Bft) O 90 -2,8 C -1,7 C 0,0 km/h (0 Bft)
17.12.2018 09:40 -1,7 C 0,2 C 2,5 C 92 % 1019,0 hPa 0,0 l/m 0,0 km/h (0 Bft) O 90 -2,8 C -1,7 C 0,0 km/h (0 Bft)
17.12.2018 09:38 -1,7 C 0,4 C 2,5 C 92 % 1019,0 hPa 0,0 l/m 0,0 km/h (0 Bft) O 90 -2,8 C -1,7 C 0,0 km/h (0 Bft)
17.12.2018 09:36 -1,7 C 0,2 C 2,5 C 92 % 1019,0 hPa 0,0 l/m 0,0 km/h (0 Bft) O 90 -2,8 C -1,7 C 0,0 km/h (0 Bft)
17.12.2018 09:34 -1,7 C 0,1 C 2,5 C 92 % 1019,0 hPa 0,0 l/m 0,0 km/h (0 Bft) O 90 -2,8 C -1,7 C 0,0 km/h (0 Bft)
17.12.2018 09:32 -1,8 C -0,1 C 2,5 C 92 % 1019,0 hPa 0,0 l/m 0,0 km/h (0 Bft) O 90 -2,9 C -1,8 C 0,0 km/h (0 Bft)
17.12.2018 09:30 -1,8 C -0,3 C 2,5 C 92 % 1019,0 hPa 0,0 l/m 0,0 km/h (0 Bft) O 90 -2,9 C -1,8 C 0,0 km/h (0 Bft)
17.12.2018 09:28 -1,9 C 0,0 C 2,5 C 92 % 1018,5 hPa 0,0 l/m 0,0 km/h (0 Bft) O 90 -3,0 C -1,9 C 0,0 km/h (0 Bft)
17.12.2018 09:26 -1,9 C -0,1 C 2,5 C 92 % 1018,5 hPa 0,0 l/m 0,0 km/h (0 Bft) O 90 -3,0 C -1,9 C 0,0 km/h (0 Bft)
17.12.2018 09:24 -1,9 C -0,3 C 2,5 C 92 % 1018,5 hPa 0,0 l/m 0,0 km/h (0 Bft) O 90 -3,0 C -1,9 C 0,0 km/h (0 Bft)
17.12.2018 09:22 -2,1 C -0,3 C 2,5 C 92 % 1018,5 hPa 0,0 l/m 0,2 km/h (0 Bft) O 90 -3,2 C -2,1 C 0,0 km/h (0 Bft)
17.12.2018 09:20 -2,1 C -0,4 C 2,5 C 92 % 1018,5 hPa 0,0 l/m 0,5 km/h (0 Bft) O 90 -3,2 C -2,1 C 0,0 km/h (0 Bft)
17.12.2018 09:18 -2,1 C -0,6 C 2,5 C 92 % 1018,5 hPa 0,0 l/m 0,8 km/h (0 Bft) O 90 -3,2 C -2,1 C 0,0 km/h (0 Bft)
17.12.2018 09:16 -1,9 C -0,4 C 2,5 C 92 % 1018,5 hPa 0,0 l/m 1,1 km/h (1 Bft) O 90 -3,0 C -1,9 C 0,0 km/h (0 Bft)
17.12.2018 09:14 -1,9 C -0,4 C 2,5 C 92 % 1018,5 hPa 0,0 l/m 1,1 km/h (1 Bft) O 90 -3,0 C -1,9 C 0,0 km/h (0 Bft)
17.12.2018 09:12 -1,9 C -0,4 C 2,5 C 92 % 1018,5 hPa 0,0 l/m 1,1 km/h (1 Bft) O 90 -3,0 C -1,9 C 2,1 km/h (1 Bft)
17.12.2018 09:10 -2,1 C -0,6 C 2,5 C 92 % 1018,5 hPa 0,0 l/m 0,8 km/h (0 Bft) O 90 -3,2 C -2,1 C 1,9 km/h (1 Bft)
17.12.2018 09:08 -2,1 C -0,7 C 2,5 C 92 % 1018,5 hPa 0,0 l/m 0,5 km/h (0 Bft) O 90 -3,2 C -2,1 C 2,9 km/h (1 Bft)
17.12.2018 09:06 -1,9 C -0,7 C 2,5 C 92 % 1018,5 hPa 0,0 l/m 0,2 km/h (0 Bft) O 90 -3,0 C -1,9 C 2,7 km/h (1 Bft)
17.12.2018 09:04 -1,9 C -0,6 C 2,5 C 92 % 1018,5 hPa 0,0 l/m 0,0 km/h (0 Bft) O 90 -3,0 C -1,9 C 0,0 km/h (0 Bft)
17.12.2018 09:02 -2,0 C -0,7 C 2,5 C 92 % 1018,5 hPa 0,0 l/m 0,3 km/h (0 Bft) O 90 -3,1 C -2,0 C 0,0 km/h (0 Bft)
17.12.2018 09:00 -2,2 C -0,6 C 2,5 C 92 % 1018,5 hPa 0,0 l/m 0,5 km/h (0 Bft) O 90 -3,3 C -2,2 C 0,0 km/h (0 Bft)
17.12.2018 08:58 -2,2 C -0,7 C 2,5 C 92 % 1018,5 hPa 0,0 l/m 0,6 km/h (0 Bft) O 90 -3,3 C -2,2 C 0,0 km/h (0 Bft)
17.12.2018 08:56 -2,2 C -0,7 C 2,5 C 92 % 1018,5 hPa 0,0 l/m 0,6 km/h (0 Bft) O 90 -3,3 C -2,2 C 0,0 km/h (0 Bft)
17.12.2018 08:54 -2,2 C -0,8 C 2,5 C 92 % 1018,5 hPa 0,0 l/m 0,6 km/h (0 Bft) O 90 -3,3 C -2,2 C 0,0 km/h (0 Bft)
17.12.2018 08:52 -2,3 C -1,1 C 2,5 C 92 % 1018,5 hPa 0,0 l/m 0,5 km/h (0 Bft) O 90 -3,4 C -2,3 C 3,1 km/h (1 Bft)
17.12.2018 08:50 -2,3 C -1,1 C 2,5 C 92 % 1018,5 hPa 0,0 l/m 0,3 km/h (0 Bft) O 90 -3,4 C -2,3 C 2,9 km/h (1 Bft)
17.12.2018 08:48 -2,2 C -1,1 C 2,5 C 92 % 1018,1 hPa 0,0 l/m 0,0 km/h (0 Bft) O 90 -3,3 C -2,2 C 0,0 km/h (0 Bft)
17.12.2018 08:46 -2,0 C -1,1 C 2,5 C 92 % 1018,1 hPa 0,0 l/m 0,0 km/h (0 Bft) O 90 -3,1 C -2,0 C 0,0 km/h (0 Bft)
17.12.2018 08:44 -2,0 C -1,1 C 2,5 C 92 % 1018,1 hPa 0,0 l/m 0,0 km/h (0 Bft) O 90 -3,1 C -2,0 C 0,0 km/h (0 Bft)
17.12.2018 08:42 -2,2 C -1,1 C 2,5 C 92 % 1018,1 hPa 0,0 l/m 0,0 km/h (0 Bft) O 90 -3,3 C -2,2 C 0,0 km/h (0 Bft)
17.12.2018 08:40 -2,3 C -1,1 C 2,5 C 92 % 1018,1 hPa 0,0 l/m 0,0 km/h (0 Bft) O 90 -3,4 C -2,3 C 0,0 km/h (0 Bft)
17.12.2018 08:38 -2,4 C -1,3 C 2,5 C 92 % 1018,1 hPa 0,0 l/m 0,0 km/h (0 Bft) O 90 -3,5 C -2,4 C 0,0 km/h (0 Bft)
17.12.2018 08:36 -2,4 C -1,3 C 2,5 C 92 % 1018,1 hPa 0,0 l/m 0,0 km/h (0 Bft) O 90 -3,5 C -2,4 C 0,0 km/h (0 Bft)
17.12.2018 08:34 -2,4 C -1,4 C 2,5 C 92 % 1018,1 hPa 0,0 l/m 0,0 km/h (0 Bft) O 90 -3,5 C -2,4 C 0,0 km/h (0 Bft)
17.12.2018 08:32 -2,4 C -1,4 C 2,5 C 92 % 1018,1 hPa 0,0 l/m 0,0 km/h (0 Bft) O 90 -3,5 C -2,4 C 0,0 km/h (0 Bft)
17.12.2018 08:30 -2,4 C -1,4 C 2,5 C 92 % 1018,1 hPa 0,0 l/m 0,0 km/h (0 Bft) O 90 -3,5 C -2,4 C 0,0 km/h (0 Bft)
17.12.2018 08:28 -2,4 C -1,4 C 2,5 C 92 % 1017,8 hPa 0,0 l/m 0,0 km/h (0 Bft) O 90 -3,5 C -2,4 C 0,0 km/h (0 Bft)
17.12.2018 08:26 -2,4 C -1,5 C 2,5 C 92 % 1017,8 hPa 0,0 l/m 0,0 km/h (0 Bft) O 90 -3,5 C -2,4 C 0,0 km/h (0 Bft)
17.12.2018 08:24 -2,4 C -1,4 C 2,5 C 92 % 1017,8 hPa 0,0 l/m 0,0 km/h (0 Bft) O 90 -3,5 C -2,4 C 0,0 km/h (0 Bft)
17.12.2018 08:22 -2,4 C -1,5 C 2,5 C 92 % 1017,8 hPa 0,0 l/m 0,0 km/h (0 Bft) O 90 -3,5 C -2,4 C 0,0 km/h (0 Bft)
17.12.2018 08:20 -2,4 C -1,5 C 2,5 C 92 % 1017,8 hPa 0,0 l/m 0,0 km/h (0 Bft) O 90 -3,5 C -2,4 C 0,0 km/h (0 Bft)
17.12.2018 08:18 -2,4 C -1,5 C 2,5 C 92 % 1017,8 hPa 0,0 l/m 0,0 km/h (0 Bft) O 90 -3,5 C -2,4 C 0,0 km/h (0 Bft)
17.12.2018 08:16 -2,4 C -1,7 C 2,5 C 92 % 1017,8 hPa 0,0 l/m 0,0 km/h (0 Bft) O 90 -3,5 C -2,4 C 0,0 km/h (0 Bft)
17.12.2018 08:14 -2,4 C -1,5 C 2,5 C 92 % 1017,8 hPa 0,0 l/m 0,0 km/h (0 Bft) O 90 -3,5 C -2,4 C 0,0 km/h (0 Bft)
17.12.2018 08:12 -2,6 C -1,5 C 2,5 C 92 % 1017,8 hPa 0,0 l/m 0,0 km/h (0 Bft) O 90 -3,7 C -2,6 C 0,0 km/h (0 Bft)
17.12.2018 08:10 -2,6 C -1,5 C 2,5 C 92 % 1017,8 hPa 0,0 l/m 0,2 km/h (0 Bft) O 90 -3,7 C -2,6 C 0,0 km/h (0 Bft)
17.12.2018 08:08 -2,6 C -1,5 C 2,5 C 92 % 1017,7 hPa 0,0 l/m 0,2 km/h (0 Bft) O 90 -3,7 C -2,6 C 0,0 km/h (0 Bft)
17.12.2018 08:06 -2,4 C -1,6 C 2,5 C 92 % 1017,7 hPa 0,0 l/m 0,2 km/h (0 Bft) O 90 -3,5 C -2,4 C 0,0 km/h (0 Bft)
17.12.2018 08:04 -2,6 C -1,8 C 2,5 C 92 % 1017,7 hPa 0,0 l/m 0,2 km/h (0 Bft) O 90 -3,7 C -2,6 C 0,0 km/h (0 Bft)
17.12.2018 08:02 -2,6 C -1,8 C 2,5 C 92 % 1017,7 hPa 0,0 l/m 0,2 km/h (0 Bft) O 90 -3,7 C -2,6 C 0,0 km/h (0 Bft)
17.12.2018 08:00 -2,6 C -1,8 C 2,5 C 92 % 1017,7 hPa 0,0 l/m 0,2 km/h (0 Bft) O 90 -3,7 C -2,6 C 2,1 km/h (1 Bft)
17.12.2018 07:58 -2,4 C -1,6 C 2,5 C 92 % 1017,7 hPa 0,0 l/m 0,0 km/h (0 Bft) O 90 -3,5 C -2,4 C 0,0 km/h (0 Bft)
17.12.2018 07:56 -2,6 C -1,6 C 2,5 C 92 % 1017,7 hPa 0,0 l/m 0,0 km/h (0 Bft) O 90 -3,7 C -2,6 C 0,0 km/h (0 Bft)
17.12.2018 07:54 -2,4 C -1,5 C 2,5 C 92 % 1017,7 hPa 0,0 l/m 0,0 km/h (0 Bft) O 90 -3,5 C -2,4 C 0,0 km/h (0 Bft)
17.12.2018 07:52 -2,4 C -1,6 C 2,5 C 92 % 1017,7 hPa 0,0 l/m 0,0 km/h (0 Bft) O 90 -3,5 C -2,4 C 0,0 km/h (0 Bft)
17.12.2018 07:50 -2,4 C -1,8 C 2,5 C 92 % 1017,7 hPa 0,0 l/m 0,0 km/h (0 Bft) O 90 -3,5 C -2,4 C 0,0 km/h (0 Bft)
17.12.2018 07:48 -2,4 C -1,8 C 2,5 C 92 % 1017,5 hPa 0,0 l/m 0,0 km/h (0 Bft) O 90 -3,5 C -2,4 C 0,0 km/h (0 Bft)
17.12.2018 07:46 -2,4 C -1,8 C 2,5 C 92 % 1017,5 hPa 0,0 l/m 0,0 km/h (0 Bft) O 90 -3,5 C -2,4 C 0,0 km/h (0 Bft)
17.12.2018 07:44 -2,4 C -1,8 C 2,5 C 92 % 1017,5 hPa 0,0 l/m 0,0 km/h (0 Bft) O 90 -3,5 C -2,4 C 0,0 km/h (0 Bft)
17.12.2018 07:42 -2,4 C -1,8 C 2,5 C 92 % 1017,5 hPa 0,0 l/m 0,0 km/h (0 Bft) O 90 -3,5 C -2,4 C 0,0 km/h (0 Bft)
17.12.2018 07:40 -2,6 C -1,8 C 2,5 C 92 % 1017,5 hPa 0,0 l/m 0,0 km/h (0 Bft) O 90 -3,7 C -2,6 C 0,0 km/h (0 Bft)
17.12.2018 07:38 -2,7 C -1,8 C 2,5 C 92 % 1017,5 hPa 0,0 l/m 0,0 km/h (0 Bft) O 90 -3,8 C -2,7 C 0,0 km/h (0 Bft)
17.12.2018 07:36 -2,7 C -1,9 C 2,5 C 92 % 1017,5 hPa 0,0 l/m 0,0 km/h (0 Bft) O 90 -3,8 C -2,7 C 0,0 km/h (0 Bft)
17.12.2018 07:34 -2,7 C -2,0 C 2,5 C 92 % 1017,5 hPa 0,0 l/m 0,0 km/h (0 Bft) O 90 -3,8 C -2,7 C 0,0 km/h (0 Bft)
17.12.2018 07:32 -2,7 C -2,0 C 2,5 C 92 % 1017,5 hPa 0,0 l/m 0,0 km/h (0 Bft) O 90 -3,8 C -2,7 C 0,0 km/h (0 Bft)
17.12.2018 07:30 -2,8 C -2,0 C 2,5 C 92 % 1017,5 hPa 0,0 l/m 0,0 km/h (0 Bft) O 90 -3,9 C -2,8 C 0,0 km/h (0 Bft)
17.12.2018 07:28 -2,8 C -2,0 C 2,5 C 92 % 1017,3 hPa 0,0 l/m 0,0 km/h (0 Bft) O 90 -3,9 C -2,8 C 0,0 km/h (0 Bft)
17.12.2018 07:26 -2,7 C -2,0 C 2,5 C 92 % 1017,3 hPa 0,0 l/m 0,0 km/h (0 Bft) O 90 -3,8 C -2,7 C 0,0 km/h (0 Bft)
17.12.2018 07:24 -2,7 C -2,0 C 2,5 C 92 % 1017,3 hPa 0,0 l/m 0,0 km/h (0 Bft) O 90 -3,8 C -2,7 C 0,0 km/h (0 Bft)
17.12.2018 07:22 -2,8 C -2,0 C 2,5 C 92 % 1017,3 hPa 0,0 l/m 0,0 km/h (0 Bft) O 90 -3,9 C -2,8 C 0,0 km/h (0 Bft)
17.12.2018 07:20 -2,8 C -1,9 C 2,5 C 92 % 1017,3 hPa 0,0 l/m 0,0 km/h (0 Bft) O 90 -3,9 C -2,8 C 0,0 km/h (0 Bft)
17.12.2018 07:18 -2,8 C -1,9 C 2,5 C 92 % 1017,3 hPa 0,0 l/m 0,0 km/h (0 Bft) O 90 -3,9 C -2,8 C 0,0 km/h (0 Bft)
17.12.2018 07:16 -2,8 C -1,9 C 2,5 C 92 % 1017,3 hPa 0,0 l/m 0,0 km/h (0 Bft) O 90 -3,9 C -2,8 C 0,0 km/h (0 Bft)
17.12.2018 07:14 -2,7 C -1,9 C 2,5 C 92 % 1017,3 hPa 0,0 l/m 0,0 km/h (0 Bft) O 90 -3,8 C -2,7 C 0,0 km/h (0 Bft)
17.12.2018 07:12 -2,7 C -2,0 C 2,5 C 92 % 1017,3 hPa 0,0 l/m 0,0 km/h (0 Bft) O 90 -3,8 C -2,7 C 0,0 km/h (0 Bft)
17.12.2018 07:10 -2,6 C -1,9 C 2,5 C 92 % 1017,3 hPa 0,0 l/m 0,0 km/h (0 Bft) O 90 -3,7 C -2,6 C 0,0 km/h (0 Bft)
17.12.2018 07:08 -2,7 C -1,9 C 2,5 C 92 % 1017,1 hPa 0,0 l/m 0,0 km/h (0 Bft) O 90 -3,8 C -2,7 C 0,0 km/h (0 Bft)
17.12.2018 07:06 -2,7 C -1,9 C 2,5 C 92 % 1017,1 hPa 0,0 l/m 0,0 km/h (0 Bft) O 90 -3,8 C -2,7 C 0,0 km/h (0 Bft)
17.12.2018 07:04 -2,8 C -2,0 C 2,5 C 92 % 1017,1 hPa 0,0 l/m 0,0 km/h (0 Bft) O 90 -3,9 C -2,8 C 0,0 km/h (0 Bft)
17.12.2018 07:02 -2,8 C -2,0 C 2,5 C 92 % 1017,1 hPa 0,0 l/m 0,0 km/h (0 Bft) O 90 -3,9 C -2,8 C 0,0 km/h (0 Bft)
17.12.2018 07:00 -3,0 C -2,0 C 2,5 C 92 % 1017,1 hPa 0,0 l/m 0,0 km/h (0 Bft) O 90 -4,1 C -3,0 C 0,0 km/h (0 Bft)
17.12.2018 06:58 -3,0 C -2,0 C 2,5 C 92 % 1017,1 hPa 0,0 l/m 0,0 km/h (0 Bft) O 90 -4,1 C -3,0 C 0,0 km/h (0 Bft)
17.12.2018 06:56 -3,0 C -2,0 C 2,5 C 92 % 1017,1 hPa 0,0 l/m 0,0 km/h (0 Bft) O 90 -4,1 C -3,0 C 0,0 km/h (0 Bft)
17.12.2018 06:54 -3,0 C -2,0 C 2,5 C 92 % 1017,1 hPa 0,0 l/m 0,0 km/h (0 Bft) O 90 -4,1 C -3,0 C 0,0 km/h (0 Bft)
17.12.2018 06:52 -2,8 C -2,0 C 2,5 C 92 % 1017,1 hPa 0,0 l/m 0,0 km/h (0 Bft) O 90 -3,9 C -2,8 C 0,0 km/h (0 Bft)
17.12.2018 06:50 -2,8 C -2,0 C 2,5 C 92 % 1017,1 hPa 0,0 l/m 0,0 km/h (0 Bft) O 90 -3,9 C -2,8 C 0,0 km/h (0 Bft)
17.12.2018 06:48 -3,0 C -2,0 C 2,5 C 92 % 1017,1 hPa 0,0 l/m 0,0 km/h (0 Bft) O 90 -4,1 C -3,0 C 0,0 km/h (0 Bft)
17.12.2018 06:46 -3,0 C -2,0 C 2,5 C 92 % 1017,1 hPa 0,0 l/m 0,0 km/h (0 Bft) O 90 -4,1 C -3,0 C 0,0 km/h (0 Bft)
17.12.2018 06:44 -3,0 C -2,0 C 2,5 C 92 % 1017,1 hPa 0,0 l/m 0,0 km/h (0 Bft) O 90 -4,1 C -3,0 C 0,0 km/h (0 Bft)
17.12.2018 06:42 -3,0 C -2,0 C 2,5 C 92 % 1017,1 hPa 0,0 l/m 0,0 km/h (0 Bft) O 90 -4,1 C -3,0 C 0,0 km/h (0 Bft)
17.12.2018 06:40 -3,0 C -2,0 C 2,5 C 92 % 1017,1 hPa 0,0 l/m 0,0 km/h (0 Bft) O 90 -4,1 C -3,0 C 0,0 km/h (0 Bft)
17.12.2018 06:38 -3,0 C -2,2 C 2,5 C 92 % 1017,1 hPa 0,0 l/m 0,0 km/h (0 Bft) O 90 -4,1 C -3,0 C 0,0 km/h (0 Bft)
17.12.2018 06:36 -3,0 C -2,2 C 2,5 C 91 % 1017,1 hPa 0,0 l/m 0,0 km/h (0 Bft) O 90 -4,3 C -3,0 C 0,0 km/h (0 Bft)
17.12.2018 06:34 -3,1 C -2,0 C 2,5 C 91 % 1017,1 hPa 0,0 l/m 0,0 km/h (0 Bft) O 90 -4,4 C -3,1 C 0,0 km/h (0 Bft)
17.12.2018 06:32 -3,1 C -2,0 C 2,5 C 91 % 1017,1 hPa 0,0 l/m 0,0 km/h (0 Bft) O 90 -4,4 C -3,1 C 0,0 km/h (0 Bft)
17.12.2018 06:30 -3,1 C -2,0 C 2,5 C 91 % 1017,1 hPa 0,0 l/m 0,0 km/h (0 Bft) O 90 -4,4 C -3,1 C 0,0 km/h (0 Bft)
17.12.2018 06:28 -3,1 C -2,0 C 2,5 C 91 % 1016,9 hPa 0,0 l/m 0,0 km/h (0 Bft) O 90 -4,4 C -3,1 C 0,0 km/h (0 Bft)
17.12.2018 06:26 -3,0 C -2,0 C 2,5 C 91 % 1016,9 hPa 0,0 l/m 0,0 km/h (0 Bft) O 90 -4,3 C -3,0 C 0,0 km/h (0 Bft)
17.12.2018 06:24 -3,0 C -2,0 C 2,5 C 91 % 1016,9 hPa 0,0 l/m 0,0 km/h (0 Bft) O 90 -4,3 C -3,0 C 0,0 km/h (0 Bft)
17.12.2018 06:22 -3,0 C -2,0 C 2,5 C 91 % 1016,9 hPa 0,0 l/m 0,0 km/h (0 Bft) O 90 -4,3 C -3,0 C 0,0 km/h (0 Bft)
17.12.2018 06:20 -3,1 C -2,2 C 2,5 C 91 % 1016,9 hPa 0,0 l/m 0,0 km/h (0 Bft) O 90 -4,4 C -3,1 C 0,0 km/h (0 Bft)
17.12.2018 06:18 -3,1 C -2,2 C 2,5 C 91 % 1016,9 hPa 0,0 l/m 0,0 km/h (0 Bft) O 90 -4,4 C -3,1 C 0,0 km/h (0 Bft)
17.12.2018 06:16 -3,2 C -2,0 C 2,5 C 91 % 1016,9 hPa 0,0 l/m 0,0 km/h (0 Bft) O 90 -4,5 C -3,2 C 0,0 km/h (0 Bft)
17.12.2018 06:14 -3,2 C -2,0 C 2,5 C 91 % 1016,9 hPa 0,0 l/m 0,0 km/h (0 Bft) O 90 -4,5 C -3,2 C 0,0 km/h (0 Bft)
17.12.2018 06:12 -3,1 C -2,0 C 2,5 C 91 % 1016,9 hPa 0,0 l/m 1,4 km/h (1 Bft) O 90 -4,4 C -3,1 C 0,0 km/h (0 Bft)
17.12.2018 06:10 -3,1 C -2,0 C 2,5 C 91 % 1016,9 hPa 0,0 l/m 1,4 km/h (1 Bft) O 90 -4,4 C -3,1 C 0,0 km/h (0 Bft)
17.12.2018 06:08 -3,1 C -2,0 C 2,5 C 91 % 1016,8 hPa 0,0 l/m 1,4 km/h (1 Bft) O 90 -4,4 C -3,1 C 0,0 km/h (0 Bft)
17.12.2018 06:06 -3,1 C -2,0 C 2,5 C 91 % 1016,8 hPa 0,0 l/m 1,4 km/h (1 Bft) O 90 -4,4 C -3,1 C 0,0 km/h (0 Bft)
17.12.2018 06:04 -3,1 C -2,0 C 2,5 C 91 % 1016,8 hPa 0,0 l/m 1,4 km/h (1 Bft) O 90 -4,4 C -3,1 C 5,6 km/h (1 Bft)
17.12.2018 06:02 -3,1 C -2,0 C 2,5 C 91 % 1016,8 hPa 0,0 l/m 1,4 km/h (1 Bft) O 90 -4,4 C -3,1 C 0,0 km/h (0 Bft)
17.12.2018 06:00 -3,2 C -1,9 C 2,5 C 91 % 1016,8 hPa 0,0 l/m 1,4 km/h (1 Bft) O 90 -4,5 C -3,2 C 0,0 km/h (0 Bft)
17.12.2018 05:58 -3,0 C -2,0 C 2,5 C 91 % 1016,8 hPa 0,0 l/m 1,4 km/h (1 Bft) O 90 -4,3 C -3,0 C 3,5 km/h (1 Bft)
17.12.2018 05:56 -3,2 C -2,3 C 2,5 C 91 % 1016,8 hPa 0,0 l/m 0,6 km/h (0 Bft) O 90 -4,5 C -3,2 C 5,4 km/h (1 Bft)
17.12.2018 05:54 -3,2 C -2,2 C 2,5 C 91 % 1016,8 hPa 0,0 l/m 0,0 km/h (0 Bft) O 90 -4,5 C -3,2 C 2,5 km/h (1 Bft)
17.12.2018 05:52 -3,2 C -2,2 C 2,5 C 91 % 1016,8 hPa 0,0 l/m 0,0 km/h (0 Bft) O 90 -4,5 C -3,2 C 0,0 km/h (0 Bft)
17.12.2018 05:50 -3,2 C -2,3 C 2,5 C 91 % 1016,8 hPa 0,0 l/m 0,0 km/h (0 Bft) O 90 -4,5 C -3,2 C 0,0 km/h (0 Bft)
17.12.2018 05:48 -3,2 C -2,3 C 2,5 C 91 % 1016,8 hPa 0,0 l/m 0,0 km/h (0 Bft) O 90 -4,5 C -3,2 C 0,0 km/h (0 Bft)
17.12.2018 05:46 -3,4 C -2,3 C 2,5 C 91 % 1016,8 hPa 0,0 l/m 0,0 km/h (0 Bft) O 90 -4,7 C -3,4 C 0,0 km/h (0 Bft)
17.12.2018 05:44 -3,5 C -2,5 C 2,5 C 91 % 1016,8 hPa 0,0 l/m 0,0 km/h (0 Bft) O 90 -4,8 C -3,5 C 0,0 km/h (0 Bft)
17.12.2018 05:42 -3,5 C -2,3 C 2,5 C 91 % 1016,8 hPa 0,0 l/m 0,0 km/h (0 Bft) O 90 -4,8 C -3,5 C 0,0 km/h (0 Bft)
17.12.2018 05:40 -3,6 C -2,5 C 2,5 C 91 % 1016,8 hPa 0,0 l/m 0,0 km/h (0 Bft) O 90 -4,8 C -3,6 C 0,0 km/h (0 Bft)
17.12.2018 05:38 -3,6 C -2,6 C 2,5 C 91 % 1016,8 hPa 0,0 l/m 0,0 km/h (0 Bft) O 90 -4,8 C -3,6 C 0,0 km/h (0 Bft)
17.12.2018 05:36 -3,5 C -2,6 C 2,5 C 91 % 1016,8 hPa 0,0 l/m 0,0 km/h (0 Bft) O 90 -4,8 C -3,5 C 0,0 km/h (0 Bft)
17.12.2018 05:34 -3,4 C -2,6 C 2,5 C 91 % 1016,8 hPa 0,0 l/m 0,0 km/h (0 Bft) O 90 -4,7 C -3,4 C 0,0 km/h (0 Bft)
17.12.2018 05:32 -3,5 C -2,5 C 2,5 C 91 % 1016,8 hPa 0,0 l/m 0,0 km/h (0 Bft) O 90 -4,8 C -3,5 C 0,0 km/h (0 Bft)
17.12.2018 05:30 -3,5 C -2,6 C 2,5 C 91 % 1016,8 hPa 0,0 l/m 0,0 km/h (0 Bft) O 90 -4,8 C -3,5 C 0,0 km/h (0 Bft)
17.12.2018 05:28 -3,5 C -2,7 C 2,5 C 91 % 1016,7 hPa 0,0 l/m 0,0 km/h (0 Bft) O 90 -4,8 C -3,5 C 0,0 km/h (0 Bft)
17.12.2018 05:26 -3,5 C -2,7 C 2,5 C 91 % 1016,7 hPa 0,0 l/m 0,0 km/h (0 Bft) O 90 -4,8 C -3,5 C 0,0 km/h (0 Bft)
17.12.2018 05:24 -3,6 C -2,6 C 2,5 C 91 % 1016,7 hPa 0,0 l/m 0,0 km/h (0 Bft) O 90 -4,8 C -3,6 C 0,0 km/h (0 Bft)
17.12.2018 05:22 -3,6 C -2,7 C 2,5 C 91 % 1016,7 hPa 0,0 l/m 0,0 km/h (0 Bft) O 90 -4,8 C -3,6 C 0,0 km/h (0 Bft)
17.12.2018 05:20 -3,6 C -2,7 C 2,5 C 91 % 1016,7 hPa 0,0 l/m 0,0 km/h (0 Bft) O 90 -4,8 C -3,6 C 0,0 km/h (0 Bft)
17.12.2018 05:18 -3,8 C -2,7 C 2,5 C 91 % 1016,7 hPa 0,0 l/m 0,0 km/h (0 Bft) O 90 -5,0 C -3,8 C 0,0 km/h (0 Bft)
17.12.2018 05:16 -3,6 C -2,7 C 2,5 C 91 % 1016,7 hPa 0,0 l/m 0,0 km/h (0 Bft) O 90 -4,8 C -3,6 C 0,0 km/h (0 Bft)
17.12.2018 05:14 -3,8 C -2,6 C 2,5 C 91 % 1016,7 hPa 0,0 l/m 0,0 km/h (0 Bft) O 90 -5,0 C -3,8 C 0,0 km/h (0 Bft)
17.12.2018 05:12 -3,6 C -2,6 C 2,5 C 91 % 1016,7 hPa 0,0 l/m 0,0 km/h (0 Bft) O 90 -4,8 C -3,6 C 0,0 km/h (0 Bft)
17.12.2018 05:10 -3,6 C -2,7 C 2,5 C 91 % 1016,7 hPa 0,0 l/m 0,0 km/h (0 Bft) O 90 -4,8 C -3,6 C 0,0 km/h (0 Bft)
17.12.2018 05:08 -3,8 C -2,9 C 2,5 C 91 % 1016,6 hPa 0,0 l/m 0,0 km/h (0 Bft) O 90 -5,0 C -3,8 C 0,0 km/h (0 Bft)
17.12.2018 05:06 -3,6 C -2,9 C 2,5 C 91 % 1016,6 hPa 0,0 l/m 0,0 km/h (0 Bft) O 90 -4,8 C -3,6 C 0,0 km/h (0 Bft)
17.12.2018 05:04 -3,4 C -2,9 C 2,5 C 91 % 1016,6 hPa 0,0 l/m 0,0 km/h (0 Bft) O 90 -4,7 C -3,4 C 0,0 km/h (0 Bft)
17.12.2018 05:01 -3,5 C -2,9 C 2,5 C 91 % 1016,6 hPa 0,0 l/m 0,0 km/h (0 Bft) O 90 -4,8 C -3,5 C 0,0 km/h (0 Bft)
17.12.2018 05:00 -3,8 C -3,0 C 2,5 C 91 % 1016,6 hPa 0,0 l/m 0,0 km/h (0 Bft) O 90 -5,0 C -3,8 C 0,0 km/h (0 Bft)
17.12.2018 04:58 -3,9 C -3,1 C 2,5 C 91 % 1016,6 hPa 0,0 l/m 0,0 km/h (0 Bft) O 90 -5,1 C -3,9 C 0,0 km/h (0 Bft)
17.12.2018 04:56 -3,9 C -3,3 C 2,5 C 91 % 1016,6 hPa 0,0 l/m 0,0 km/h (0 Bft) O 90 -5,1 C -3,9 C 0,0 km/h (0 Bft)
17.12.2018 04:54 -4,0 C -3,4 C 2,5 C 91 % 1016,6 hPa 0,0 l/m 0,0 km/h (0 Bft) O 90 -5,2 C -4,0 C 0,0 km/h (0 Bft)
17.12.2018 04:52 -3,8 C -3,7 C 2,5 C 91 % 1016,6 hPa 0,0 l/m 0,0 km/h (0 Bft) O 90 -5,0 C -3,8 C 0,0 km/h (0 Bft)
17.12.2018 04:50 -3,8 C -3,7 C 2,5 C 91 % 1016,6 hPa 0,0 l/m 0,0 km/h (0 Bft) O 90 -5,0 C -3,8 C 0,0 km/h (0 Bft)
17.12.2018 04:48 -3,8 C -3,8 C 2,5 C 91 % 1016,7 hPa 0,0 l/m 0,0 km/h (0 Bft) O 90 -5,0 C -3,8 C 0,0 km/h (0 Bft)
17.12.2018 04:46 -3,6 C -3,9 C 2,5 C 91 % 1016,7 hPa 0,0 l/m 0,0 km/h (0 Bft) O 90 -4,8 C -3,6 C 0,0 km/h (0 Bft)
17.12.2018 04:44 -3,8 C -4,1 C 2,5 C 90 % 1016,7 hPa 0,0 l/m 0,0 km/h (0 Bft) O 90 -5,2 C -3,8 C 0,0 km/h (0 Bft)
17.12.2018 04:42 -3,9 C -4,1 C 2,5 C 90 % 1016,7 hPa 0,0 l/m 0,0 km/h (0 Bft) O 90 -5,3 C -3,9 C 0,0 km/h (0 Bft)
17.12.2018 04:40 -3,9 C -3,9 C 2,5 C 90 % 1016,7 hPa 0,0 l/m 0,0 km/h (0 Bft) O 90 -5,3 C -3,9 C 0,0 km/h (0 Bft)
17.12.2018 04:38 -4,0 C -4,2 C 2,5 C 90 % 1016,7 hPa 0,0 l/m 0,0 km/h (0 Bft) O 90 -5,4 C -4,0 C 0,0 km/h (0 Bft)
17.12.2018 04:36 -4,2 C -4,2 C 2,5 C 90 % 1016,7 hPa 0,0 l/m 0,2 km/h (0 Bft) O 90 -5,6 C -4,2 C 0,0 km/h (0 Bft)
17.12.2018 04:34 -3,9 C -4,2 C 2,5 C 90 % 1016,7 hPa 0,0 l/m 0,6 km/h (0 Bft) O 90 -5,3 C -3,9 C 0,0 km/h (0 Bft)
17.12.2018 04:32 -4,0 C -4,1 C 2,5 C 90 % 1016,7 hPa 0,0 l/m 1,0 km/h (0 Bft) O 90 -5,4 C -4,0 C 0,0 km/h (0 Bft)
17.12.2018 04:30 -4,2 C -4,1 C 2,5 C 90 % 1016,7 hPa 0,0 l/m 1,1 km/h (1 Bft) O 90 -5,6 C -4,2 C 0,0 km/h (0 Bft)
17.12.2018 04:28 -4,2 C -3,9 C 2,5 C 90 % 1016,4 hPa 0,0 l/m 1,1 km/h (1 Bft) O 90 -5,6 C -4,2 C 0,0 km/h (0 Bft)
17.12.2018 04:26 -4,2 C -3,8 C 2,5 C 90 % 1016,4 hPa 0,0 l/m 1,1 km/h (1 Bft) O 90 -5,6 C -4,2 C 2,5 km/h (1 Bft)
17.12.2018 04:24 -4,3 C -3,8 C 2,5 C 90 % 1016,4 hPa 0,0 l/m 0,6 km/h (0 Bft) O 90 -5,7 C -4,3 C 3,3 km/h (1 Bft)
17.12.2018 04:22 -4,3 C -3,8 C 2,5 C 90 % 1016,4 hPa 0,0 l/m 0,2 km/h (0 Bft) O 90 -5,7 C -4,3 C 2,1 km/h (1 Bft)
17.12.2018 04:20 -4,2 C -3,8 C 2,5 C 90 % 1016,4 hPa 0,0 l/m 0,0 km/h (0 Bft) O 90 -5,6 C -4,2 C 0,0 km/h (0 Bft)
17.12.2018 04:18 -4,0 C -3,8 C 2,5 C 90 % 1016,4 hPa 0,0 l/m 0,0 km/h (0 Bft) O 90 -5,4 C -4,0 C 0,0 km/h (0 Bft)
17.12.2018 04:16 -4,0 C -3,7 C 2,5 C 90 % 1016,4 hPa 0,0 l/m 0,0 km/h (0 Bft) O 90 -5,4 C -4,0 C 0,0 km/h (0 Bft)
17.12.2018 04:14 -4,0 C -3,5 C 2,5 C 90 % 1016,4 hPa 0,0 l/m 0,0 km/h (0 Bft) O 90 -5,4 C -4,0 C 0,0 km/h (0 Bft)
17.12.2018 04:12 -4,2 C -3,7 C 2,5 C 90 % 1016,4 hPa 0,0 l/m 0,0 km/h (0 Bft) O 90 -5,6 C -4,2 C 0,0 km/h (0 Bft)
17.12.2018 04:10 -4,2 C -3,5 C 2,5 C 90 % 1016,4 hPa 0,0 l/m 0,0 km/h (0 Bft) O 90 -5,6 C -4,2 C 0,0 km/h (0 Bft)
17.12.2018 04:08 -4,2 C -3,5 C 2,5 C 90 % 1016,6 hPa 0,0 l/m 0,0 km/h (0 Bft) O 90 -5,6 C -4,2 C 0,0 km/h (0 Bft)
17.12.2018 04:06 -4,3 C -3,5 C 2,5 C 90 % 1016,6 hPa 0,0 l/m 0,0 km/h (0 Bft) O 90 -5,7 C -4,3 C 0,0 km/h (0 Bft)
17.12.2018 04:04 -4,3 C -3,5 C 2,5 C 90 % 1016,6 hPa 0,0 l/m 0,0 km/h (0 Bft) O 90 -5,7 C -4,3 C 0,0 km/h (0 Bft)
17.12.2018 04:02 -4,3 C -3,7 C 2,5 C 90 % 1016,6 hPa 0,0 l/m 0,0 km/h (0 Bft) O 90 -5,7 C -4,3 C 0,0 km/h (0 Bft)
17.12.2018 04:00 -4,3 C -3,7 C 2,5 C 90 % 1016,6 hPa 0,0 l/m 0,0 km/h (0 Bft) O 90 -5,7 C -4,3 C 0,0 km/h (0 Bft)
17.12.2018 03:58 -4,3 C -3,5 C 2,5 C 90 % 1016,6 hPa 0,0 l/m 0,0 km/h (0 Bft) O 90 -5,7 C -4,3 C 0,0 km/h (0 Bft)
17.12.2018 03:56 -4,2 C -3,3 C 2,5 C 90 % 1016,6 hPa 0,0 l/m 0,0 km/h (0 Bft) O 90 -5,6 C -4,2 C 0,0 km/h (0 Bft)
17.12.2018 03:54 -4,3 C -3,3 C 2,5 C 90 % 1016,6 hPa 0,0 l/m 0,0 km/h (0 Bft) O 90 -5,7 C -4,3 C 0,0 km/h (0 Bft)
17.12.2018 03:52 -4,2 C -3,3 C 2,5 C 90 % 1016,6 hPa 0,0 l/m 0,0 km/h (0 Bft) O 90 -5,6 C -4,2 C 0,0 km/h (0 Bft)
17.12.2018 03:50 -4,3 C -3,5 C 2,5 C 90 % 1016,6 hPa 0,0 l/m 0,5 km/h (0 Bft) O 90 -5,7 C -4,3 C 0,0 km/h (0 Bft)
17.12.2018 03:48 -4,2 C -3,7 C 2,5 C 90 % 1016,5 hPa 0,0 l/m 0,6 km/h (0 Bft) O 90 -5,6 C -4,2 C 0,0 km/h (0 Bft)
17.12.2018 03:46 -4,2 C -3,8 C 2,5 C 90 % 1016,5 hPa 0,0 l/m 0,8 km/h (0 Bft) O 90 -5,6 C -4,2 C 0,0 km/h (0 Bft)
17.12.2018 03:44 -4,3 C -3,8 C 2,5 C 90 % 1016,5 hPa 0,0 l/m 0,8 km/h (0 Bft) O 90 -5,7 C -4,3 C 0,0 km/h (0 Bft)
17.12.2018 03:42 -4,2 C -3,9 C 2,5 C 90 % 1016,5 hPa 0,0 l/m 0,8 km/h (0 Bft) O 90 -5,6 C -4,2 C 0,0 km/h (0 Bft)
17.12.2018 03:40 -4,4 C -4,1 C 2,5 C 90 % 1016,5 hPa 0,0 l/m 0,6 km/h (0 Bft) O 90 -5,8 C -4,4 C 3,1 km/h (1 Bft)
17.12.2018 03:38 -4,6 C -4,2 C 2,5 C 90 % 1016,5 hPa 0,0 l/m 0,3 km/h (0 Bft) O 90 -6,0 C -4,6 C 1,9 km/h (1 Bft)
17.12.2018 03:36 -4,7 C -4,4 C 2,5 C 90 % 1016,5 hPa 0,0 l/m 0,2 km/h (0 Bft) O 90 -6,1 C -4,7 C 2,1 km/h (1 Bft)
17.12.2018 03:34 -4,7 C -4,4 C 2,5 C 90 % 1016,5 hPa 0,0 l/m 0,0 km/h (0 Bft) O 90 -6,1 C -4,7 C 0,0 km/h (0 Bft)
17.12.2018 03:32 -4,3 C -4,4 C 2,5 C 90 % 1016,5 hPa 0,0 l/m 0,0 km/h (0 Bft) O 90 -5,7 C -4,3 C 0,0 km/h (0 Bft)
17.12.2018 03:30 -4,2 C -4,4 C 2,5 C 90 % 1016,5 hPa 0,0 l/m 0,0 km/h (0 Bft) O 90 -5,6 C -4,2 C 0,0 km/h (0 Bft)
17.12.2018 03:28 -4,4 C -4,4 C 2,5 C 90 % 1016,8 hPa 0,0 l/m 0,0 km/h (0 Bft) O 90 -5,8 C -4,4 C 0,0 km/h (0 Bft)
17.12.2018 03:26 -4,6 C -4,1 C 2,5 C 90 % 1016,8 hPa 0,0 l/m 0,0 km/h (0 Bft) O 90 -6,0 C -4,6 C 0,0 km/h (0 Bft)
17.12.2018 03:24 -4,7 C -4,2 C 2,5 C 90 % 1016,8 hPa 0,0 l/m 0,0 km/h (0 Bft) O 90 -6,1 C -4,7 C 0,0 km/h (0 Bft)
17.12.2018 03:22 -4,7 C -4,5 C 2,5 C 90 % 1016,8 hPa 0,0 l/m 0,0 km/h (0 Bft) O 90 -6,1 C -4,7 C 0,0 km/h (0 Bft)
17.12.2018 03:20 -4,7 C -4,5 C 2,5 C 90 % 1016,8 hPa 0,0 l/m 0,0 km/h (0 Bft) O 90 -6,1 C -4,7 C 0,0 km/h (0 Bft)
17.12.2018 03:18 -4,8 C -4,6 C 2,5 C 90 % 1016,8 hPa 0,0 l/m 0,0 km/h (0 Bft) O 90 -6,2 C -4,8 C 0,0 km/h (0 Bft)
17.12.2018 03:16 -4,7 C -4,4 C 2,5 C 90 % 1016,8 hPa 0,0 l/m 0,0 km/h (0 Bft) O 90 -6,1 C -4,7 C 0,0 km/h (0 Bft)
17.12.2018 03:14 -4,7 C -4,2 C 2,5 C 90 % 1016,8 hPa 0,0 l/m 0,0 km/h (0 Bft) O 90 -6,1 C -4,7 C 0,0 km/h (0 Bft)
17.12.2018 03:12 -4,8 C -4,1 C 2,5 C 90 % 1016,8 hPa 0,0 l/m 0,0 km/h (0 Bft) O 90 -6,2 C -4,8 C 0,0 km/h (0 Bft)
17.12.2018 03:10 -4,8 C -4,1 C 2,5 C 90 % 1016,8 hPa 0,0 l/m 0,0 km/h (0 Bft) O 90 -6,2 C -4,8 C 0,0 km/h (0 Bft)
17.12.2018 03:08 -4,9 C -4,2 C 2,5 C 90 % 1017,1 hPa 0,0 l/m 0,0 km/h (0 Bft) O 90 -6,3 C -4,9 C 0,0 km/h (0 Bft)
17.12.2018 03:06 -5,1 C -4,4 C 2,5 C 90 % 1017,1 hPa 0,0 l/m 0,0 km/h (0 Bft) O 90 -6,5 C -5,1 C 0,0 km/h (0 Bft)
17.12.2018 03:04 -4,9 C -4,5 C 2,5 C 90 % 1017,1 hPa 0,0 l/m 0,0 km/h (0 Bft) O 90 -6,3 C -4,9 C 0,0 km/h (0 Bft)
17.12.2018 03:02 -4,8 C -4,6 C 2,5 C 90 % 1017,1 hPa 0,0 l/m 0,0 km/h (0 Bft) O 90 -6,2 C -4,8 C 0,0 km/h (0 Bft)
17.12.2018 03:00 -4,8 C -4,6 C 2,5 C 90 % 1017,1 hPa 0,0 l/m 0,0 km/h (0 Bft) O 90 -6,2 C -4,8 C 0,0 km/h (0 Bft)
17.12.2018 02:58 -4,9 C -4,4 C 2,5 C 90 % 1017,1 hPa 0,0 l/m 0,0 km/h (0 Bft) O 90 -6,3 C -4,9 C 0,0 km/h (0 Bft)
17.12.2018 02:56 -4,9 C -4,1 C 2,5 C 90 % 1017,1 hPa 0,0 l/m 0,2 km/h (0 Bft) O 90 -6,3 C -4,9 C 0,0 km/h (0 Bft)
17.12.2018 02:54 -5,1 C -3,9 C 2,5 C 89 % 1017,1 hPa 0,0 l/m 0,5 km/h (0 Bft) O 90 -6,6 C -5,1 C 0,0 km/h (0 Bft)
17.12.2018 02:52 -5,1 C -4,1 C 2,5 C 89 % 1017,1 hPa 0,0 l/m 0,6 km/h (0 Bft) O 90 -6,6 C -5,1 C 0,0 km/h (0 Bft)
17.12.2018 02:50 -5,1 C -4,2 C 2,5 C 89 % 1017,1 hPa 0,0 l/m 0,8 km/h (0 Bft) O 90 -6,6 C -5,1 C 0,0 km/h (0 Bft)
17.12.2018 02:48 -5,2 C -4,1 C 2,5 C 89 % 1017,0 hPa 0,0 l/m 1,1 km/h (1 Bft) O 90 -6,7 C -5,2 C 0,0 km/h (0 Bft)
17.12.2018 02:46 -5,2 C -4,1 C 2,5 C 89 % 1017,0 hPa 0,0 l/m 1,4 km/h (1 Bft) O 90 -6,7 C -5,2 C 2,7 km/h (1 Bft)
17.12.2018 02:44 -5,1 C -4,1 C 2,5 C 89 % 1017,0 hPa 0,0 l/m 1,4 km/h (1 Bft) O 90 -6,6 C -5,1 C 4,2 km/h (1 Bft)
17.12.2018 02:42 -5,2 C -3,9 C 2,5 C 89 % 1017,0 hPa 0,0 l/m 1,3 km/h (1 Bft) O 90 -6,7 C -5,2 C 0,0 km/h (0 Bft)
17.12.2018 02:40 -5,4 C -3,9 C 2,5 C 89 % 1017,0 hPa 0,0 l/m 1,6 km/h (1 Bft) O 90 -6,9 C -5,4 C 2,1 km/h (1 Bft)
17.12.2018 02:38 -5,4 C -3,8 C 2,5 C 89 % 1017,0 hPa 0,0 l/m 1,3 km/h (1 Bft) O 90 -6,9 C -5,4 C 3,1 km/h (1 Bft)
17.12.2018 02:36 -5,2 C -3,7 C 2,5 C 89 % 1017,0 hPa 0,0 l/m 1,1 km/h (1 Bft) O 90 -6,7 C -5,2 C 2,9 km/h (1 Bft)
17.12.2018 02:34 -4,9 C -3,6 C 2,5 C 89 % 1017,0 hPa 0,0 l/m 0,6 km/h (0 Bft) O 90 -6,4 C -4,9 C 0,0 km/h (0 Bft)
17.12.2018 02:32 -4,9 C -3,6 C 2,5 C 89 % 1017,0 hPa 0,0 l/m 0,6 km/h (0 Bft) O 90 -6,4 C -4,9 C 3,5 km/h (1 Bft)
17.12.2018 02:30 -4,9 C -3,8 C 2,5 C 89 % 1017,0 hPa 0,0 l/m 0,2 km/h (0 Bft) O 90 -6,4 C -4,9 C 3,3 km/h (1 Bft)
17.12.2018 02:28 -4,9 C -3,8 C 2,5 C 89 % 1016,9 hPa 0,0 l/m 0,0 km/h (0 Bft) O 90 -6,4 C -4,9 C 0,0 km/h (0 Bft)
17.12.2018 02:26 -5,4 C -3,9 C 2,5 C 89 % 1016,9 hPa 0,0 l/m 0,0 km/h (0 Bft) O 90 -6,9 C -5,4 C 0,0 km/h (0 Bft)
17.12.2018 02:24 -5,4 C -4,1 C 2,5 C 89 % 1016,9 hPa 0,0 l/m 0,5 km/h (0 Bft) O 90 -6,9 C -5,4 C 0,0 km/h (0 Bft)
17.12.2018 02:22 -5,5 C -4,3 C 2,5 C 89 % 1016,9 hPa 0,0 l/m 0,6 km/h (0 Bft) O 90 -7,0 C -5,5 C 0,0 km/h (0 Bft)
17.12.2018 02:20 -5,5 C -4,6 C 2,5 C 89 % 1016,9 hPa 0,0 l/m 0,6 km/h (0 Bft) O 90 -7,0 C -5,5 C 0,0 km/h (0 Bft)
17.12.2018 02:18 -5,7 C -4,6 C 2,5 C 89 % 1016,9 hPa 0,0 l/m 0,8 km/h (0 Bft) O 90 -7,2 C -5,7 C 0,0 km/h (0 Bft)
17.12.2018 02:16 -5,7 C -4,8 C 2,5 C 89 % 1016,9 hPa 0,0 l/m 1,3 km/h (1 Bft) O 90 -7,2 C -5,7 C 0,0 km/h (0 Bft)
17.12.2018 02:14 -5,8 C -4,9 C 2,5 C 89 % 1016,9 hPa 0,0 l/m 1,3 km/h (1 Bft) O 90 -7,3 C -5,8 C 5,4 km/h (1 Bft)
17.12.2018 02:12 -6,0 C -4,9 C 2,5 C 89 % 1016,9 hPa 0,0 l/m 1,0 km/h (0 Bft) O 90 -7,5 C -6,0 C 2,1 km/h (1 Bft)
17.12.2018 02:10 -6,2 C -5,2 C 2,5 C 89 % 1016,9 hPa 0,0 l/m 1,1 km/h (1 Bft) O 90 -7,7 C -6,2 C 3,9 km/h (1 Bft)
17.12.2018 02:08 -5,8 C -5,3 C 2,5 C 89 % 1016,9 hPa 0,0 l/m 1,0 km/h (0 Bft) O 90 -7,3 C -5,8 C 0,0 km/h (0 Bft)
17.12.2018 02:06 -6,3 C -5,7 C 2,5 C 89 % 1016,9 hPa 0,0 l/m 0,6 km/h (0 Bft) O 90 -7,8 C -6,3 C 3,3 km/h (1 Bft)
17.12.2018 02:04 -6,5 C -5,8 C 2,5 C 89 % 1016,9 hPa 0,0 l/m 0,5 km/h (0 Bft) O 90 -8,0 C -6,5 C 0,0 km/h (0 Bft)
17.12.2018 02:02 -6,3 C -6,0 C 2,5 C 89 % 1016,9 hPa 0,0 l/m 0,5 km/h (0 Bft) O 90 -7,8 C -6,3 C 2,5 km/h (1 Bft)
17.12.2018 02:00 -6,1 C -6,0 C 2,5 C 89 % 1016,9 hPa 0,0 l/m 0,0 km/h (0 Bft) O 90 -7,6 C -6,1 C 0,0 km/h (0 Bft)
17.12.2018 01:58 -6,3 C -6,0 C 2,5 C 89 % 1016,9 hPa 0,0 l/m 0,0 km/h (0 Bft) O 90 -7,8 C -6,3 C 0,0 km/h (0 Bft)
17.12.2018 01:56 -6,3 C -6,0 C 2,5 C 89 % 1016,9 hPa 0,0 l/m 0,0 km/h (0 Bft) O 90 -7,8 C -6,3 C 0,0 km/h (0 Bft)
17.12.2018 01:54 -6,4 C -6,1 C 2,5 C 89 % 1016,9 hPa 0,0 l/m 0,0 km/h (0 Bft) O 90 -7,9 C -6,4 C 0,0 km/h (0 Bft)
17.12.2018 01:52 -6,9 C -6,6 C 2,5 C 88 % 1016,9 hPa 0,0 l/m 0,0 km/h (0 Bft) O 90 -8,5 C -6,9 C 0,0 km/h (0 Bft)
17.12.2018 01:50 -6,7 C -6,8 C 2,5 C 88 % 1016,9 hPa 0,0 l/m 0,0 km/h (0 Bft) O 90 -8,3 C -6,7 C 0,0 km/h (0 Bft)
17.12.2018 01:48 -6,7 C -6,9 C 2,5 C 89 % 1016,8 hPa 0,0 l/m 0,0 km/h (0 Bft) O 90 -8,2 C -6,7 C 0,0 km/h (0 Bft)
17.12.2018 01:46 -6,7 C -7,1 C 2,5 C 89 % 1016,8 hPa 0,0 l/m 0,0 km/h (0 Bft) O 90 -8,2 C -6,7 C 0,0 km/h (0 Bft)
17.12.2018 01:44 -6,4 C -7,2 C 2,5 C 89 % 1016,8 hPa 0,0 l/m 0,0 km/h (0 Bft) O 90 -7,9 C -6,4 C 0,0 km/h (0 Bft)
17.12.2018 01:42 -6,3 C -7,4 C 2,5 C 88 % 1016,8 hPa 0,0 l/m 0,0 km/h (0 Bft) O 90 -8,0 C -6,3 C 0,0 km/h (0 Bft)
17.12.2018 01:40 -6,7 C -7,9 C 2,5 C 88 % 1016,8 hPa 0,0 l/m 0,0 km/h (0 Bft) O 90 -8,3 C -6,7 C 0,0 km/h (0 Bft)
17.12.2018 01:38 -6,9 C -8,7 C 2,5 C 88 % 1016,8 hPa 0,0 l/m 0,0 km/h (0 Bft) O 90 -8,5 C -6,9 C 0,0 km/h (0 Bft)
17.12.2018 01:36 -6,6 C -8,7 C 2,5 C 88 % 1016,8 hPa 0,0 l/m 0,0 km/h (0 Bft) O 90 -8,2 C -6,6 C 0,0 km/h (0 Bft)
17.12.2018 01:34 -6,7 C -8,7 C 2,5 C 88 % 1016,8 hPa 0,0 l/m 0,0 km/h (0 Bft) O 90 -8,3 C -6,7 C 0,0 km/h (0 Bft)
17.12.2018 01:32 -6,7 C -8,8 C 2,5 C 88 % 1016,8 hPa 0,0 l/m 0,0 km/h (0 Bft) O 90 -8,3 C -6,7 C 0,0 km/h (0 Bft)
17.12.2018 01:30 -6,7 C -9,5 C 2,5 C 88 % 1016,8 hPa 0,0 l/m 0,0 km/h (0 Bft) O 90 -8,3 C -6,7 C 0,0 km/h (0 Bft)
17.12.2018 01:28 -6,6 C -9,8 C 2,5 C 88 % 1016,8 hPa 0,0 l/m 0,0 km/h (0 Bft) O 90 -8,2 C -6,6 C 0,0 km/h (0 Bft)
17.12.2018 01:26 -6,7 C -10,3 C 2,5 C 88 % 1016,8 hPa 0,0 l/m 0,0 km/h (0 Bft) O 90 -8,3 C -6,7 C 0,0 km/h (0 Bft)
17.12.2018 01:24 -6,4 C -10,7 C 2,5 C 88 % 1016,8 hPa 0,0 l/m 0,0 km/h (0 Bft) O 90 -8,1 C -6,4 C 0,0 km/h (0 Bft)
17.12.2018 01:22 -6,6 C -11,1 C 2,5 C 88 % 1016,8 hPa 0,0 l/m 0,0 km/h (0 Bft) O 90 -8,2 C -6,6 C 0,0 km/h (0 Bft)
17.12.2018 01:20 -6,6 C -11,1 C 2,5 C 88 % 1016,8 hPa 0,0 l/m 0,0 km/h (0 Bft) O 90 -8,2 C -6,6 C 0,0 km/h (0 Bft)
17.12.2018 01:18 -6,6 C -11,5 C 2,5 C 88 % 1016,8 hPa 0,0 l/m 0,0 km/h (0 Bft) O 90 -8,2 C -6,6 C 0,0 km/h (0 Bft)
17.12.2018 01:16 -6,6 C -11,3 C 2,5 C 88 % 1016,8 hPa 0,0 l/m 0,0 km/h (0 Bft) O 90 -8,2 C -6,6 C 0,0 km/h (0 Bft)
17.12.2018 01:14 -6,8 C -10,7 C 2,5 C 88 % 1016,8 hPa 0,0 l/m 0,0 km/h (0 Bft) O 90 -8,4 C -6,8 C 0,0 km/h (0 Bft)
17.12.2018 01:12 -6,8 C -10,3 C 2,5 C 88 % 1016,8 hPa 0,0 l/m 0,0 km/h (0 Bft) O 90 -8,4 C -6,8 C 0,0 km/h (0 Bft)
17.12.2018 01:10 -6,5 C -10,5 C 2,5 C 88 % 1016,8 hPa 0,0 l/m 0,2 km/h (0 Bft) O 90 -8,1 C -6,5 C 0,0 km/h (0 Bft)
17.12.2018 01:08 -6,5 C -10,5 C 2,5 C 88 % 1016,9 hPa 0,0 l/m 0,2 km/h (0 Bft) O 90 -8,1 C -6,5 C 0,0 km/h (0 Bft)
17.12.2018 01:06 -6,5 C -10,3 C 2,5 C 88 % 1016,9 hPa 0,0 l/m 0,2 km/h (0 Bft) O 90 -8,1 C -6,5 C 0,0 km/h (0 Bft)
17.12.2018 01:04 -6,6 C -10,0 C 2,5 C 88 % 1016,9 hPa 0,0 l/m 0,2 km/h (0 Bft) O 90 -8,2 C -6,6 C 0,0 km/h (0 Bft)
17.12.2018 01:02 -6,6 C -10,2 C 2,5 C 88 % 1016,9 hPa 0,0 l/m 0,2 km/h (0 Bft) O 90 -8,2 C -6,6 C 0,0 km/h (0 Bft)
17.12.2018 01:00 -6,5 C -10,0 C 2,5 C 88 % 1016,9 hPa 0,0 l/m 0,2 km/h (0 Bft) O 90 -8,1 C -6,5 C 0,0 km/h (0 Bft)
17.12.2018 00:58 -6,5 C -9,5 C 2,5 C 88 % 1016,9 hPa 0,0 l/m 0,0 km/h (0 Bft) O 90 -8,1 C -6,5 C 0,0 km/h (0 Bft)
17.12.2018 00:56 -6,2 C -8,9 C 2,5 C 88 % 1016,9 hPa 0,0 l/m 0,0 km/h (0 Bft) O 90 -7,9 C -6,2 C 0,0 km/h (0 Bft)
17.12.2018 00:54 -6,2 C -8,4 C 2,5 C 88 % 1016,9 hPa 0,0 l/m 0,3 km/h (0 Bft) O 90 -7,9 C -6,2 C 0,0 km/h (0 Bft)
17.12.2018 00:52 -6,3 C -8,1 C 2,5 C 88 % 1016,9 hPa 0,0 l/m 0,6 km/h (0 Bft) O 90 -8,0 C -6,3 C 0,0 km/h (0 Bft)
17.12.2018 00:50 -6,2 C -8,1 C 2,5 C 88 % 1016,9 hPa 0,0 l/m 1,0 km/h (0 Bft) O 90 -7,9 C -6,2 C 0,0 km/h (0 Bft)
17.12.2018 00:48 -6,0 C -7,7 C 2,5 C 88 % 1016,9 hPa 0,0 l/m 1,1 km/h (1 Bft) O 90 -7,7 C -6,0 C 0,0 km/h (0 Bft)
17.12.2018 00:46 -6,2 C -7,1 C 2,5 C 88 % 1016,9 hPa 0,0 l/m 1,3 km/h (1 Bft) O 90 -7,9 C -6,2 C 0,0 km/h (0 Bft)
17.12.2018 00:44 -6,3 C -6,5 C 2,5 C 88 % 1016,9 hPa 0,0 l/m 1,0 km/h (0 Bft) O 90 -8,0 C -6,3 C 0,0 km/h (0 Bft)
17.12.2018 00:42 -6,6 C -6,1 C 2,5 C 88 % 1016,9 hPa 0,0 l/m 1,0 km/h (0 Bft) O 90 -8,2 C -6,6 C 2,7 km/h (1 Bft)
17.12.2018 00:40 -6,5 C -6,6 C 2,5 C 88 % 1016,9 hPa 0,0 l/m 0,8 km/h (0 Bft) O 90 -8,1 C -6,5 C 2,5 km/h (1 Bft)
17.12.2018 00:38 -6,5 C -6,9 C 2,5 C 88 % 1016,9 hPa 0,0 l/m 0,8 km/h (0 Bft) O 90 -8,1 C -6,5 C 0,0 km/h (0 Bft)
17.12.2018 00:36 -6,5 C -6,9 C 2,5 C 88 % 1016,9 hPa 0,0 l/m 1,1 km/h (1 Bft) O 90 -8,1 C -6,5 C 0,0 km/h (0 Bft)
17.12.2018 00:34 -6,3 C -6,6 C 2,5 C 88 % 1016,9 hPa 0,0 l/m 1,3 km/h (1 Bft) O 90 -8,0 C -6,3 C 0,0 km/h (0 Bft)
17.12.2018 00:32 -6,4 C -6,5 C 2,5 C 88 % 1016,9 hPa 0,0 l/m 1,4 km/h (1 Bft) O 90 -8,1 C -6,4 C 2,9 km/h (1 Bft)
17.12.2018 00:30 -6,6 C -6,8 C 2,5 C 88 % 1016,9 hPa 0,0 l/m 1,6 km/h (1 Bft) O 90 -8,2 C -6,6 C 0,0 km/h (0 Bft)
17.12.2018 00:28 -6,7 C -6,6 C 2,5 C 88 % 1017,0 hPa 0,0 l/m 1,6 km/h (1 Bft) O 90 -8,3 C -6,7 C 2,5 km/h (1 Bft)
17.12.2018 00:26 -6,9 C -6,9 C 2,5 C 88 % 1017,0 hPa 0,0 l/m 1,3 km/h (1 Bft) O 90 -8,5 C -6,9 C 3,5 km/h (1 Bft)
17.12.2018 00:24 -6,3 C -6,9 C 2,5 C 88 % 1017,0 hPa 0,0 l/m 0,8 km/h (0 Bft) O 90 -8,0 C -6,3 C 2,1 km/h (1 Bft)
17.12.2018 00:22 -6,6 C -6,6 C 2,5 C 88 % 1017,0 hPa 0,0 l/m 0,8 km/h (0 Bft) O 90 -8,2 C -6,6 C 2,7 km/h (1 Bft)
17.12.2018 00:20 -6,3 C -6,4 C 2,5 C 88 % 1017,0 hPa 0,0 l/m 0,3 km/h (0 Bft) O 90 -8,0 C -6,3 C 3,3 km/h (1 Bft)
17.12.2018 00:18 -6,4 C -6,6 C 2,5 C 88 % 1017,0 hPa 0,0 l/m 0,0 km/h (0 Bft) O 90 -8,1 C -6,4 C 0,0 km/h (0 Bft)
17.12.2018 00:16 -6,9 C -7,1 C 2,5 C 88 % 1017,0 hPa 0,0 l/m 0,0 km/h (0 Bft) O 90 -8,5 C -6,9 C 0,0 km/h (0 Bft)
17.12.2018 00:14 -6,7 C -7,6 C 2,5 C 88 % 1017,0 hPa 0,0 l/m 0,3 km/h (0 Bft) O 90 -8,3 C -6,7 C 0,0 km/h (0 Bft)
17.12.2018 00:12 -7,2 C -10,0 C 2,5 C 88 % 1017,0 hPa 0,0 l/m 0,0 km/h (0 Bft) O 90 -8,8 C -7,2 C 0,0 km/h (0 Bft)
17.12.2018 00:10 -7,2 C -10,0 C 2,5 C 88 % 1017,0 hPa 0,0 l/m 0,0 km/h (0 Bft) O 90 -8,8 C -7,2 C 0,0 km/h (0 Bft)
17.12.2018 00:08 -7,2 C -10,0 C 2,5 C 88 % 1016,8 hPa 0,0 l/m 0,0 km/h (0 Bft) O 90 -8,8 C -7,2 C 0,0 km/h (0 Bft)
17.12.2018 00:06 -7,2 C -10,0 C 2,5 C 88 % 1016,8 hPa 0,0 l/m 0,0 km/h (0 Bft) O 90 -8,8 C -7,2 C 0,0 km/h (0 Bft)
17.12.2018 00:04 -7,2 C -10,0 C 2,5 C 88 % 1016,8 hPa 0,0 l/m 0,0 km/h (0 Bft) O 90 -8,8 C -7,2 C 0,0 km/h (0 Bft)
17.12.2018 00:02 -7,2 C -10,1 C 2,5 C 88 % 1016,8 hPa 0,0 l/m 0,0 km/h (0 Bft) O 90 -8,8 C -7,2 C 0,0 km/h (0 Bft)
17.12.2018 00:00 -7,1 C -10,5 C 2,5 C 88 % 1016,8 hPa 0,0 l/m 0,0 km/h (0 Bft) O 90 -8,7 C -7,1 C 0,0 km/h (0 Bft)
_ Min-Zeit 00:02 01:18 00:00 00:00 04:10 - 00:00 - - 00:02 00:02 00:00
Minimum _ -7,2 C -11,5 C 2,5 C 88 % 1016,4 hPa - 0,0 km/h (0 Bft) - - -8,8 C -7,2 C 0,0 km/h (0 Bft)
_ Max-Zeit 10:26 10:18 00:00 09:58 10:30 00:00 00:28 - - 10:26 10:26 06:04
Maximum _ -0,3 C 1,0 C 2,5 C 93 % 1020,1 hPa 0,0 l/m 1,6 km/h
O (1 Bft)
- - -1,3 C -0,3 C 5,6 km/h
O (1 Bft)
Durchschnitt _ -3,8 C -3,3 C 2,5 C 91 % 1017,4 hPa #0,0 l/m 0,2 km/h (0 Bft) O - -5,1 C -3,8 C 0,4 km/h (0 Bft)